sensor_id;sensor_type;location;lat;lon;timestamp;pressure;altitude;pressure_sealevel;temperature;humidity
48095;BME280;33874;52.070;-0.516;2023-05-23T00:01:02;102243.80;;;10.94;57.44
48095;BME280;33874;52.070;-0.516;2023-05-23T00:03:30;102240.20;;;10.92;57.61
48095;BME280;33874;52.070;-0.516;2023-05-23T00:06:00;102238.70;;;10.91;57.65
48095;BME280;33874;52.070;-0.516;2023-05-23T00:08:51;102245.71;;;10.92;57.77
48095;BME280;33874;52.070;-0.516;2023-05-23T00:11:22;102242.76;;;10.91;57.94
48095;BME280;33874;52.070;-0.516;2023-05-23T00:13:56;102249.27;;;10.91;58.02
48095;BME280;33874;52.070;-0.516;2023-05-23T00:16:31;102247.66;;;10.89;58.05
48095;BME280;33874;52.070;-0.516;2023-05-23T00:19:01;102248.40;;;10.85;58.02
48095;BME280;33874;52.070;-0.516;2023-05-23T00:21:39;102248.75;;;10.77;58.03
48095;BME280;33874;52.070;-0.516;2023-05-23T00:24:22;102249.10;;;10.68;58.11
48095;BME280;33874;52.070;-0.516;2023-05-23T00:30:23;102244.14;;;10.48;58.63
48095;BME280;33874;52.070;-0.516;2023-05-23T00:32:53;102241.65;;;10.46;58.96
48095;BME280;33874;52.070;-0.516;2023-05-23T00:38:20;102238.09;;;10.47;59.28
48095;BME280;33874;52.070;-0.516;2023-05-23T00:40:53;102233.77;;;10.46;59.40
48095;BME280;33874;52.070;-0.516;2023-05-23T00:50:00;102234.52;;;10.39;59.61
48095;BME280;33874;52.070;-0.516;2023-05-23T00:55:48;102233.05;;;10.34;59.90
48095;BME280;33874;52.070;-0.516;2023-05-23T00:58:23;102242.23;;;10.34;59.93
48095;BME280;33874;52.070;-0.516;2023-05-23T01:01:08;102238.58;;;10.33;60.04
48095;BME280;33874;52.070;-0.516;2023-05-23T01:03:41;102239.20;;;10.31;60.11
48095;BME280;33874;52.070;-0.516;2023-05-23T01:06:25;102235.94;;;10.30;60.28
48095;BME280;33874;52.070;-0.516;2023-05-23T01:08:55;102234.58;;;10.29;60.35
48095;BME280;33874;52.070;-0.516;2023-05-23T01:11:32;102237.52;;;10.27;60.33
48095;BME280;33874;52.070;-0.516;2023-05-23T01:14:09;102241.71;;;10.24;60.43
48095;BME280;33874;52.070;-0.516;2023-05-23T01:29:12;102245.41;;;10.03;60.79
48095;BME280;33874;52.070;-0.516;2023-05-23T01:31:51;102245.20;;;10.01;60.85
48095;BME280;33874;52.070;-0.516;2023-05-23T01:34:41;102247.51;;;9.97;61.03
48095;BME280;33874;52.070;-0.516;2023-05-23T01:37:16;102248.02;;;9.95;61.11
48095;BME280;33874;52.070;-0.516;2023-05-23T01:42:46;102250.36;;;9.91;61.20
48095;BME280;33874;52.070;-0.516;2023-05-23T01:47:58;102247.67;;;9.85;61.48
48095;BME280;33874;52.070;-0.516;2023-05-23T01:50:28;102253.10;;;9.83;61.54
48095;BME280;33874;52.070;-0.516;2023-05-23T01:53:01;102255.31;;;9.81;61.61
48095;BME280;33874;52.070;-0.516;2023-05-23T01:55:32;102250.50;;;9.79;61.65
48095;BME280;33874;52.070;-0.516;2023-05-23T01:58:06;102258.02;;;9.80;61.85
48095;BME280;33874;52.070;-0.516;2023-05-23T02:00:36;102258.75;;;9.79;61.97
48095;BME280;33874;52.070;-0.516;2023-05-23T02:03:07;102261.89;;;9.80;62.04
48095;BME280;33874;52.070;-0.516;2023-05-23T02:05:37;102260.05;;;9.81;62.27
48095;BME280;33874;52.070;-0.516;2023-05-23T02:10:50;102266.48;;;9.82;62.34
48095;BME280;33874;52.070;-0.516;2023-05-23T02:13:20;102267.67;;;9.80;62.24
48095;BME280;33874;52.070;-0.516;2023-05-23T02:15:49;102271.15;;;9.74;62.39
48095;BME280;33874;52.070;-0.516;2023-05-23T02:18:19;102271.29;;;9.72;62.66
48095;BME280;33874;52.070;-0.516;2023-05-23T02:20:52;102276.83;;;9.70;63.06
48095;BME280;33874;52.070;-0.516;2023-05-23T02:23:22;102276.89;;;9.69;63.19
48095;BME280;33874;52.070;-0.516;2023-05-23T02:25:52;102273.41;;;9.68;63.40
48095;BME280;33874;52.070;-0.516;2023-05-23T02:28:20;102279.60;;;9.68;63.55
48095;BME280;33874;52.070;-0.516;2023-05-23T02:30:51;102283.36;;;9.67;63.69
48095;BME280;33874;52.070;-0.516;2023-05-23T02:33:21;102285.91;;;9.65;63.84
48095;BME280;33874;52.070;-0.516;2023-05-23T02:35:50;102282.02;;;9.62;63.92
48095;BME280;33874;52.070;-0.516;2023-05-23T02:38:20;102283.39;;;9.60;64.03
48095;BME280;33874;52.070;-0.516;2023-05-23T02:40:49;102279.14;;;9.57;64.24
48095;BME280;33874;52.070;-0.516;2023-05-23T02:43:22;102277.88;;;9.54;64.27
48095;BME280;33874;52.070;-0.516;2023-05-23T02:48:34;102278.83;;;9.47;64.34
48095;BME280;33874;52.070;-0.516;2023-05-23T02:51:09;102279.85;;;9.44;64.49
48095;BME280;33874;52.070;-0.516;2023-05-23T02:53:45;102278.27;;;9.42;64.45
48095;BME280;33874;52.070;-0.516;2023-05-23T02:56:14;102278.63;;;9.38;64.50
48095;BME280;33874;52.070;-0.516;2023-05-23T02:58:44;102278.27;;;9.35;64.33
48095;BME280;33874;52.070;-0.516;2023-05-23T03:01:13;102271.99;;;9.31;64.42
48095;BME280;33874;52.070;-0.516;2023-05-23T03:03:43;102276.71;;;9.29;64.45
48095;BME280;33874;52.070;-0.516;2023-05-23T03:06:16;102277.17;;;9.27;64.49
48095;BME280;33874;52.070;-0.516;2023-05-23T03:08:47;102276.29;;;9.24;64.52
48095;BME280;33874;52.070;-0.516;2023-05-23T03:11:16;102276.11;;;9.20;64.53
48095;BME280;33874;52.070;-0.516;2023-05-23T03:13:45;102281.36;;;9.17;64.62
48095;BME280;33874;52.070;-0.516;2023-05-23T03:16:16;102282.21;;;9.14;64.65
48095;BME280;33874;52.070;-0.516;2023-05-23T03:18:44;102281.16;;;9.11;64.73
48095;BME280;33874;52.070;-0.516;2023-05-23T03:21:16;102281.58;;;9.06;64.74
48095;BME280;33874;52.070;-0.516;2023-05-23T03:23:46;102284.36;;;9.04;64.69
48095;BME280;33874;52.070;-0.516;2023-05-23T03:26:16;102279.64;;;9.00;64.81
48095;BME280;33874;52.070;-0.516;2023-05-23T03:28:46;102277.97;;;8.99;64.84
48095;BME280;33874;52.070;-0.516;2023-05-23T03:31:19;102278.93;;;8.97;64.79
48095;BME280;33874;52.070;-0.516;2023-05-23T03:33:48;102277.89;;;8.97;65.03
48095;BME280;33874;52.070;-0.516;2023-05-23T03:36:19;102275.99;;;8.96;65.12
48095;BME280;33874;52.070;-0.516;2023-05-23T03:38:51;102276.88;;;8.96;65.18
48095;BME280;33874;52.070;-0.516;2023-05-23T03:41:20;102278.24;;;8.97;65.27
48095;BME280;33874;52.070;-0.516;2023-05-23T03:43:51;102282.33;;;8.96;65.37
48095;BME280;33874;52.070;-0.516;2023-05-23T03:46:25;102286.71;;;8.96;65.34
48095;BME280;33874;52.070;-0.516;2023-05-23T03:48:58;102286.77;;;8.95;65.42
48095;BME280;33874;52.070;-0.516;2023-05-23T03:51:27;102289.63;;;8.94;65.41
48095;BME280;33874;52.070;-0.516;2023-05-23T03:53:59;102292.01;;;8.92;65.38
48095;BME280;33874;52.070;-0.516;2023-05-23T03:56:28;102291.04;;;8.90;65.51
48095;BME280;33874;52.070;-0.516;2023-05-23T03:58:58;102292.86;;;8.89;65.61
48095;BME280;33874;52.070;-0.516;2023-05-23T04:01:28;102291.89;;;8.87;65.50
48095;BME280;33874;52.070;-0.516;2023-05-23T04:03:57;102294.05;;;8.87;65.48
48095;BME280;33874;52.070;-0.516;2023-05-23T04:06:27;102298.69;;;8.85;65.42
48095;BME280;33874;52.070;-0.516;2023-05-23T04:09:20;102296.70;;;8.83;65.36
48095;BME280;33874;52.070;-0.516;2023-05-23T04:11:48;102299.59;;;8.82;65.35
48095;BME280;33874;52.070;-0.516;2023-05-23T04:17:05;102301.21;;;8.81;65.43
48095;BME280;33874;52.070;-0.516;2023-05-23T04:19:38;102300.67;;;8.81;65.40
48095;BME280;33874;52.070;-0.516;2023-05-23T04:22:11;102304.45;;;8.82;65.51
48095;BME280;33874;52.070;-0.516;2023-05-23T04:24:43;102305.72;;;8.85;65.48
48095;BME280;33874;52.070;-0.516;2023-05-23T04:27:13;102307.98;;;8.88;65.57
48095;BME280;33874;52.070;-0.516;2023-05-23T04:29:42;102306.87;;;8.93;65.59
48095;BME280;33874;52.070;-0.516;2023-05-23T04:32:12;102306.20;;;8.99;65.65
48095;BME280;33874;52.070;-0.516;2023-05-23T04:34:45;102305.98;;;9.06;65.83
48095;BME280;33874;52.070;-0.516;2023-05-23T04:37:17;102307.55;;;9.16;66.07
48095;BME280;33874;52.070;-0.516;2023-05-23T04:39:53;102304.31;;;9.27;66.10
48095;BME280;33874;52.070;-0.516;2023-05-23T04:42:24;102307.77;;;9.38;66.22
48095;BME280;33874;52.070;-0.516;2023-05-23T04:44:53;102313.42;;;9.50;66.17
48095;BME280;33874;52.070;-0.516;2023-05-23T04:47:32;102317.27;;;9.59;66.14
48095;BME280;33874;52.070;-0.516;2023-05-23T04:50:04;102316.40;;;9.66;66.00
48095;BME280;33874;52.070;-0.516;2023-05-23T04:52:36;102318.58;;;9.71;66.05
48095;BME280;33874;52.070;-0.516;2023-05-23T04:55:05;102320.63;;;9.78;66.03
48095;BME280;33874;52.070;-0.516;2023-05-23T04:57:34;102322.95;;;9.83;65.90
48095;BME280;33874;52.070;-0.516;2023-05-23T05:03:03;102331.91;;;9.90;65.69
48095;BME280;33874;52.070;-0.516;2023-05-23T05:05:35;102335.27;;;9.95;65.72
48095;BME280;33874;52.070;-0.516;2023-05-23T05:08:08;102338.52;;;10.03;65.63
48095;BME280;33874;52.070;-0.516;2023-05-23T05:13:23;102345.99;;;10.35;65.69
48095;BME280;33874;52.070;-0.516;2023-05-23T05:15:56;102345.15;;;10.53;65.65
48095;BME280;33874;52.070;-0.516;2023-05-23T05:18:26;102344.70;;;10.72;65.61
48095;BME280;33874;52.070;-0.516;2023-05-23T05:23:36;102340.77;;;10.99;65.66
48095;BME280;33874;52.070;-0.516;2023-05-23T05:26:04;102337.51;;;11.06;65.63
48095;BME280;33874;52.070;-0.516;2023-05-23T05:28:35;102338.33;;;11.16;65.57
48095;BME280;33874;52.070;-0.516;2023-05-23T05:31:08;102341.38;;;11.23;65.46
48095;BME280;33874;52.070;-0.516;2023-05-23T05:33:37;102341.54;;;11.29;65.36
48095;BME280;33874;52.070;-0.516;2023-05-23T05:36:07;102341.51;;;11.35;65.27
48095;BME280;33874;52.070;-0.516;2023-05-23T05:38:38;102337.15;;;11.43;65.13
48095;BME280;33874;52.070;-0.516;2023-05-23T05:41:07;102336.81;;;11.68;64.94
48095;BME280;33874;52.070;-0.516;2023-05-23T05:43:36;102330.10;;;12.30;64.44
48095;BME280;33874;52.070;-0.516;2023-05-23T05:46:05;102322.77;;;12.73;63.67
48095;BME280;33874;52.070;-0.516;2023-05-23T05:48:34;102321.73;;;13.13;62.91
48095;BME280;33874;52.070;-0.516;2023-05-23T05:51:03;102320.81;;;13.56;62.23
48095;BME280;33874;52.070;-0.516;2023-05-23T05:53:32;102319.38;;;14.16;61.65
48095;BME280;33874;52.070;-0.516;2023-05-23T05:56:01;102314.08;;;14.58;60.42
48095;BME280;33874;52.070;-0.516;2023-05-23T05:58:33;102315.91;;;14.89;59.78
48095;BME280;33874;52.070;-0.516;2023-05-23T06:01:02;102323.20;;;15.09;59.09
48095;BME280;33874;52.070;-0.516;2023-05-23T06:03:31;102325.84;;;15.14;58.93
48095;BME280;33874;52.070;-0.516;2023-05-23T06:06:00;102326.56;;;14.87;58.79
48095;BME280;33874;52.070;-0.516;2023-05-23T06:08:32;102328.32;;;14.64;59.04
48095;BME280;33874;52.070;-0.516;2023-05-23T06:11:02;102331.51;;;14.28;59.01
48095;BME280;33874;52.070;-0.516;2023-05-23T06:13:32;102331.77;;;13.97;59.41
48095;BME280;33874;52.070;-0.516;2023-05-23T06:16:01;102335.09;;;13.71;59.58
48095;BME280;33874;52.070;-0.516;2023-05-23T06:18:34;102334.78;;;13.48;59.82
48095;BME280;33874;52.070;-0.516;2023-05-23T06:21:03;102340.44;;;13.33;60.02
48095;BME280;33874;52.070;-0.516;2023-05-23T06:23:33;102344.06;;;13.22;60.28
48095;BME280;33874;52.070;-0.516;2023-05-23T06:26:02;102345.29;;;13.17;60.51
48095;BME280;33874;52.070;-0.516;2023-05-23T06:28:38;102346.95;;;13.14;60.55
48095;BME280;33874;52.070;-0.516;2023-05-23T06:31:08;102346.61;;;13.13;60.60
48095;BME280;33874;52.070;-0.516;2023-05-23T06:33:38;102345.63;;;13.19;60.45
48095;BME280;33874;52.070;-0.516;2023-05-23T06:36:07;102340.70;;;13.32;60.47
48095;BME280;33874;52.070;-0.516;2023-05-23T06:38:57;102340.12;;;13.33;60.76
48095;BME280;33874;52.070;-0.516;2023-05-23T06:41:26;102338.07;;;13.32;60.82
48095;BME280;33874;52.070;-0.516;2023-05-23T06:43:56;102341.60;;;13.25;60.91
48095;BME280;33874;52.070;-0.516;2023-05-23T06:46:28;102339.05;;;13.20;61.20
48095;BME280;33874;52.070;-0.516;2023-05-23T06:48:57;102342.08;;;13.20;61.18
48095;BME280;33874;52.070;-0.516;2023-05-23T06:51:41;102340.38;;;13.12;61.01
48095;BME280;33874;52.070;-0.516;2023-05-23T06:54:10;102341.50;;;13.11;61.18
48095;BME280;33874;52.070;-0.516;2023-05-23T06:56:48;102342.03;;;13.11;61.21
48095;BME280;33874;52.070;-0.516;2023-05-23T06:59:18;102340.90;;;13.07;60.97
48095;BME280;33874;52.070;-0.516;2023-05-23T07:01:47;102341.95;;;13.02;60.99
48095;BME280;33874;52.070;-0.516;2023-05-23T07:04:23;102344.82;;;12.98;61.23
48095;BME280;33874;52.070;-0.516;2023-05-23T07:06:53;102347.91;;;12.97;61.34
48095;BME280;33874;52.070;-0.516;2023-05-23T07:09:25;102344.98;;;12.98;61.44
48095;BME280;33874;52.070;-0.516;2023-05-23T07:11:55;102342.02;;;13.01;61.61
48095;BME280;33874;52.070;-0.516;2023-05-23T07:14:25;102344.42;;;13.02;61.47
48095;BME280;33874;52.070;-0.516;2023-05-23T07:16:56;102345.10;;;12.94;61.25
48095;BME280;33874;52.070;-0.516;2023-05-23T07:19:24;102350.42;;;12.91;61.54
48095;BME280;33874;52.070;-0.516;2023-05-23T07:21:53;102348.57;;;12.98;61.71
48095;BME280;33874;52.070;-0.516;2023-05-23T07:24:22;102348.77;;;13.03;61.52
48095;BME280;33874;52.070;-0.516;2023-05-23T07:26:52;102350.90;;;13.03;61.37
48095;BME280;33874;52.070;-0.516;2023-05-23T07:29:22;102349.73;;;12.96;61.41
48095;BME280;33874;52.070;-0.516;2023-05-23T07:31:51;102353.50;;;13.00;61.67
48095;BME280;33874;52.070;-0.516;2023-05-23T07:34:21;102355.09;;;13.08;61.69
48095;BME280;33874;52.070;-0.516;2023-05-23T07:36:50;102354.59;;;13.15;61.62
48095;BME280;33874;52.070;-0.516;2023-05-23T07:39:20;102353.33;;;13.15;61.28
48095;BME280;33874;52.070;-0.516;2023-05-23T07:41:52;102351.71;;;13.21;61.40
48095;BME280;33874;52.070;-0.516;2023-05-23T07:44:22;102352.35;;;13.40;61.54
48095;BME280;33874;52.070;-0.516;2023-05-23T07:46:52;102360.02;;;13.58;60.91
48095;BME280;33874;52.070;-0.516;2023-05-23T07:49:22;102361.25;;;13.73;60.96
48095;BME280;33874;52.070;-0.516;2023-05-23T07:52:13;102364.68;;;13.96;60.55
48095;BME280;33874;52.070;-0.516;2023-05-23T07:54:42;102366.89;;;14.12;60.23
48095;BME280;33874;52.070;-0.516;2023-05-23T07:57:24;102368.58;;;14.20;59.83
48095;BME280;33874;52.070;-0.516;2023-05-23T07:59:53;102364.75;;;14.24;59.67
48095;BME280;33874;52.070;-0.516;2023-05-23T08:02:24;102364.11;;;14.21;59.02
48095;BME280;33874;52.070;-0.516;2023-05-23T08:05:02;102361.87;;;14.15;59.03
48095;BME280;33874;52.070;-0.516;2023-05-23T08:07:34;102363.63;;;14.20;59.10
48095;BME280;33874;52.070;-0.516;2023-05-23T08:10:09;102360.56;;;14.42;59.44
48095;BME280;33874;52.070;-0.516;2023-05-23T08:12:48;102360.20;;;14.57;59.14
48095;BME280;33874;52.070;-0.516;2023-05-23T08:15:17;102362.38;;;14.60;58.99
48095;BME280;33874;52.070;-0.516;2023-05-23T08:17:54;102361.25;;;14.64;58.54
48095;BME280;33874;52.070;-0.516;2023-05-23T08:20:47;102357.98;;;14.78;58.58
48095;BME280;33874;52.070;-0.516;2023-05-23T08:23:35;102353.09;;;14.89;58.39
48095;BME280;33874;52.070;-0.516;2023-05-23T08:32:10;102354.94;;;15.64;58.42
48095;BME280;33874;52.070;-0.516;2023-05-23T08:34:45;102352.81;;;15.84;57.83
48095;BME280;33874;52.070;-0.516;2023-05-23T08:37:44;102354.48;;;16.07;57.78
48095;BME280;33874;52.070;-0.516;2023-05-23T08:40:38;102355.88;;;16.47;57.32
48095;BME280;33874;52.070;-0.516;2023-05-23T08:43:13;102356.19;;;16.67;56.34
48095;BME280;33874;52.070;-0.516;2023-05-23T08:45:42;102359.87;;;16.84;55.33
48095;BME280;33874;52.070;-0.516;2023-05-23T08:48:31;102357.64;;;16.89;54.45
48095;BME280;33874;52.070;-0.516;2023-05-23T08:51:25;102362.17;;;16.96;54.49
48095;BME280;33874;52.070;-0.516;2023-05-23T08:53:56;102363.67;;;17.06;53.65
48095;BME280;33874;52.070;-0.516;2023-05-23T08:56:49;102367.01;;;17.12;53.80
48095;BME280;33874;52.070;-0.516;2023-05-23T08:59:38;102375.41;;;17.10;52.75
48095;BME280;33874;52.070;-0.516;2023-05-23T09:02:17;102374.86;;;17.00;52.40
48095;BME280;33874;52.070;-0.516;2023-05-23T09:07:34;102366.49;;;17.22;52.58
48095;BME280;33874;52.070;-0.516;2023-05-23T09:10:13;102368.09;;;17.38;52.35
48095;BME280;33874;52.070;-0.516;2023-05-23T09:13:26;102369.54;;;17.54;52.32
48095;BME280;33874;52.070;-0.516;2023-05-23T09:18:44;102369.66;;;17.83;50.81
48095;BME280;33874;52.070;-0.516;2023-05-23T09:21:36;102370.83;;;17.96;50.94
48095;BME280;33874;52.070;-0.516;2023-05-23T09:30:29;102370.72;;;18.11;49.85
48095;BME280;33874;52.070;-0.516;2023-05-23T09:33:56;102374.46;;;18.22;50.09
48095;BME280;33874;52.070;-0.516;2023-05-23T09:36:22;102375.80;;;18.27;49.08
48095;BME280;33874;52.070;-0.516;2023-05-23T09:39:02;102371.65;;;18.18;49.04
48095;BME280;33874;52.070;-0.516;2023-05-23T09:41:35;102369.82;;;18.12;49.14
48095;BME280;33874;52.070;-0.516;2023-05-23T09:44:13;102363.98;;;18.08;48.94
48095;BME280;33874;52.070;-0.516;2023-05-23T09:47:07;102369.10;;;18.03;48.95
48095;BME280;33874;52.070;-0.516;2023-05-23T09:50:18;102364.57;;;17.98;48.52
48095;BME280;33874;52.070;-0.516;2023-05-23T09:52:45;102363.59;;;18.07;48.92
48095;BME280;33874;52.070;-0.516;2023-05-23T09:55:30;102364.37;;;18.16;48.93
48095;BME280;33874;52.070;-0.516;2023-05-23T09:57:59;102364.25;;;18.19;48.67
48095;BME280;33874;52.070;-0.516;2023-05-23T10:00:50;102363.95;;;18.07;48.02
48095;BME280;33874;52.070;-0.516;2023-05-23T10:03:44;102362.17;;;17.97;47.96
48095;BME280;33874;52.070;-0.516;2023-05-23T10:06:26;102361.81;;;17.93;48.32
48095;BME280;33874;52.070;-0.516;2023-05-23T10:09:02;102365.20;;;17.91;48.11
48095;BME280;33874;52.070;-0.516;2023-05-23T10:14:21;102359.19;;;17.57;48.01
48095;BME280;33874;52.070;-0.516;2023-05-23T10:17:06;102364.21;;;17.50;48.44
48095;BME280;33874;52.070;-0.516;2023-05-23T10:19:50;102359.63;;;17.52;48.72
48095;BME280;33874;52.070;-0.516;2023-05-23T10:22:28;102361.62;;;17.63;48.96
48095;BME280;33874;52.070;-0.516;2023-05-23T10:25:03;102367.25;;;17.80;48.78
48095;BME280;33874;52.070;-0.516;2023-05-23T10:27:38;102366.52;;;17.90;48.27
48095;BME280;33874;52.070;-0.516;2023-05-23T10:33:21;102366.62;;;18.28;48.24
48095;BME280;33874;52.070;-0.516;2023-05-23T10:45:50;102372.02;;;19.00;46.38
48095;BME280;33874;52.070;-0.516;2023-05-23T10:58:31;102375.99;;;18.86;46.01
48095;BME280;33874;52.070;-0.516;2023-05-23T11:01:15;102383.57;;;19.02;45.87
48095;BME280;33874;52.070;-0.516;2023-05-23T11:04:46;102380.13;;;19.12;45.35
48095;BME280;33874;52.070;-0.516;2023-05-23T11:07:45;102377.24;;;19.42;45.37
48095;BME280;33874;52.070;-0.516;2023-05-23T11:13:05;102378.61;;;19.65;44.83
48095;BME280;33874;52.070;-0.516;2023-05-23T11:15:41;102374.09;;;19.67;44.66
48095;BME280;33874;52.070;-0.516;2023-05-23T11:18:30;102371.20;;;19.89;45.27
48095;BME280;33874;52.070;-0.516;2023-05-23T11:21:19;102368.48;;;20.15;45.23
48095;BME280;33874;52.070;-0.516;2023-05-23T11:27:10;102371.45;;;20.33;44.79
48095;BME280;33874;52.070;-0.516;2023-05-23T11:29:40;102372.89;;;20.21;44.17
48095;BME280;33874;52.070;-0.516;2023-05-23T11:32:14;102368.34;;;19.95;44.35
48095;BME280;33874;52.070;-0.516;2023-05-23T11:35:06;102367.83;;;19.93;44.73
48095;BME280;33874;52.070;-0.516;2023-05-23T11:37:38;102368.48;;;20.02;44.99
48095;BME280;33874;52.070;-0.516;2023-05-23T11:40:28;102370.42;;;20.09;44.77
48095;BME280;33874;52.070;-0.516;2023-05-23T11:43:00;102365.45;;;20.07;44.63
48095;BME280;33874;52.070;-0.516;2023-05-23T11:45:37;102367.83;;;20.04;44.04
48095;BME280;33874;52.070;-0.516;2023-05-23T11:48:13;102368.16;;;20.04;43.85
48095;BME280;33874;52.070;-0.516;2023-05-23T11:50:44;102368.73;;;20.07;43.99
48095;BME280;33874;52.070;-0.516;2023-05-23T11:53:42;102367.63;;;20.12;44.28
48095;BME280;33874;52.070;-0.516;2023-05-23T11:56:13;102366.94;;;20.12;43.76
48095;BME280;33874;52.070;-0.516;2023-05-23T11:58:47;102357.54;;;20.13;44.11
48095;BME280;33874;52.070;-0.516;2023-05-23T12:01:16;102359.40;;;20.24;44.35
48095;BME280;33874;52.070;-0.516;2023-05-23T12:03:59;102356.75;;;20.41;44.36
48095;BME280;33874;52.070;-0.516;2023-05-23T12:06:53;102354.77;;;20.50;44.07
48095;BME280;33874;52.070;-0.516;2023-05-23T12:12:35;102354.83;;;20.51;43.80
48095;BME280;33874;52.070;-0.516;2023-05-23T12:15:35;102352.99;;;20.53;43.59
48095;BME280;33874;52.070;-0.516;2023-05-23T12:18:41;102348.90;;;20.39;43.37
48095;BME280;33874;52.070;-0.516;2023-05-23T12:21:09;102352.35;;;20.35;43.69
48095;BME280;33874;52.070;-0.516;2023-05-23T12:23:43;102354.30;;;20.44;43.73
48095;BME280;33874;52.070;-0.516;2023-05-23T12:26:36;102351.42;;;20.48;43.43
48095;BME280;33874;52.070;-0.516;2023-05-23T12:32:43;102347.21;;;20.70;43.73
48095;BME280;33874;52.070;-0.516;2023-05-23T12:35:36;102345.19;;;20.86;43.54
48095;BME280;33874;52.070;-0.516;2023-05-23T12:38:14;102344.89;;;20.94;43.20
48095;BME280;33874;52.070;-0.516;2023-05-23T12:46:32;102332.70;;;21.16;42.81
48095;BME280;33874;52.070;-0.516;2023-05-23T12:49:07;102330.70;;;21.34;42.86
48095;BME280;33874;52.070;-0.516;2023-05-23T12:51:40;102331.17;;;21.49;42.99
48095;BME280;33874;52.070;-0.516;2023-05-23T12:54:08;102328.14;;;21.55;42.38
48095;BME280;33874;52.070;-0.516;2023-05-23T12:56:38;102331.85;;;21.42;41.84
48095;BME280;33874;52.070;-0.516;2023-05-23T12:59:11;102332.60;;;21.43;42.15
48095;BME280;33874;52.070;-0.516;2023-05-23T13:01:40;102329.74;;;21.54;41.59
48095;BME280;33874;52.070;-0.516;2023-05-23T13:04:23;102329.33;;;21.52;41.63
48095;BME280;33874;52.070;-0.516;2023-05-23T13:06:54;102333.02;;;21.49;42.02
48095;BME280;33874;52.070;-0.516;2023-05-23T13:09:43;102333.95;;;21.40;41.74
48095;BME280;33874;52.070;-0.516;2023-05-23T13:12:14;102334.23;;;21.15;41.41
48095;BME280;33874;52.070;-0.516;2023-05-23T13:14:46;102329.52;;;21.09;42.06
48095;BME280;33874;52.070;-0.516;2023-05-23T13:17:15;102335.00;;;21.04;41.80
48095;BME280;33874;52.070;-0.516;2023-05-23T13:19:44;102334.25;;;20.95;41.77
48095;BME280;33874;52.070;-0.516;2023-05-23T13:22:16;102333.67;;;20.87;42.16
48095;BME280;33874;52.070;-0.516;2023-05-23T13:24:52;102332.30;;;20.88;41.83
48095;BME280;33874;52.070;-0.516;2023-05-23T13:30:04;102335.92;;;20.63;42.30
48095;BME280;33874;52.070;-0.516;2023-05-23T13:32:56;102336.30;;;20.61;42.03
48095;BME280;33874;52.070;-0.516;2023-05-23T13:35:25;102341.44;;;20.42;42.21
48095;BME280;33874;52.070;-0.516;2023-05-23T13:37:56;102341.63;;;20.37;42.69
48095;BME280;33874;52.070;-0.516;2023-05-23T13:40:24;102334.95;;;20.50;43.01
48095;BME280;33874;52.070;-0.516;2023-05-23T13:45:33;102333.50;;;20.57;42.88
48095;BME280;33874;52.070;-0.516;2023-05-23T13:48:24;102334.37;;;20.68;42.55
48095;BME280;33874;52.070;-0.516;2023-05-23T13:50:52;102331.91;;;20.65;42.54
48095;BME280;33874;52.070;-0.516;2023-05-23T13:53:28;102333.99;;;20.67;42.20
48095;BME280;33874;52.070;-0.516;2023-05-23T13:55:59;102337.30;;;20.56;42.06
48095;BME280;33874;52.070;-0.516;2023-05-23T13:58:29;102330.36;;;20.51;42.19
48095;BME280;33874;52.070;-0.516;2023-05-23T14:01:01;102328.90;;;20.64;42.55
48095;BME280;33874;52.070;-0.516;2023-05-23T14:03:30;102329.23;;;20.84;42.54
48095;BME280;33874;52.070;-0.516;2023-05-23T14:05:59;102325.02;;;21.08;42.24
48095;BME280;33874;52.070;-0.516;2023-05-23T14:08:31;102323.30;;;21.23;41.92
48095;BME280;33874;52.070;-0.516;2023-05-23T14:10:59;102326.80;;;21.23;41.96
48095;BME280;33874;52.070;-0.516;2023-05-23T14:13:34;102325.41;;;21.18;42.14
48095;BME280;33874;52.070;-0.516;2023-05-23T14:16:03;102328.17;;;21.08;41.72
48095;BME280;33874;52.070;-0.516;2023-05-23T14:18:32;102328.54;;;20.84;41.51
48095;BME280;33874;52.070;-0.516;2023-05-23T14:21:02;102331.64;;;20.56;41.41
48095;BME280;33874;52.070;-0.516;2023-05-23T14:23:31;102327.80;;;20.29;42.01
48095;BME280;33874;52.070;-0.516;2023-05-23T14:26:00;102322.58;;;20.10;42.03
48095;BME280;33874;52.070;-0.516;2023-05-23T14:28:30;102321.39;;;19.93;42.25
48095;BME280;33874;52.070;-0.516;2023-05-23T14:31:10;102315.81;;;20.13;42.85
48095;BME280;33874;52.070;-0.516;2023-05-23T14:33:45;102313.02;;;20.48;42.60
48095;BME280;33874;52.070;-0.516;2023-05-23T14:36:15;102307.55;;;20.85;43.11
48095;BME280;33874;52.070;-0.516;2023-05-23T14:38:46;102302.15;;;21.21;42.94
48095;BME280;33874;52.070;-0.516;2023-05-23T14:41:15;102305.77;;;21.26;41.75
48095;BME280;33874;52.070;-0.516;2023-05-23T14:43:44;102302.27;;;20.94;41.57
48095;BME280;33874;52.070;-0.516;2023-05-23T14:46:16;102302.67;;;20.67;41.37
48095;BME280;33874;52.070;-0.516;2023-05-23T14:48:46;102301.76;;;20.58;41.51
48095;BME280;33874;52.070;-0.516;2023-05-23T14:51:17;102300.20;;;20.73;42.15
48095;BME280;33874;52.070;-0.516;2023-05-23T14:54:12;102298.04;;;20.87;41.66
48095;BME280;33874;52.070;-0.516;2023-05-23T14:56:45;102293.70;;;20.86;41.52
48095;BME280;33874;52.070;-0.516;2023-05-23T14:59:20;102300.83;;;21.08;41.86
48095;BME280;33874;52.070;-0.516;2023-05-23T15:01:49;102296.70;;;21.39;42.26
48095;BME280;33874;52.070;-0.516;2023-05-23T15:04:20;102295.16;;;21.58;41.82
48095;BME280;33874;52.070;-0.516;2023-05-23T15:06:56;102296.33;;;21.76;41.80
48095;BME280;33874;52.070;-0.516;2023-05-23T15:09:28;102294.81;;;21.85;41.04
48095;BME280;33874;52.070;-0.516;2023-05-23T15:11:57;102298.95;;;21.83;40.42
48095;BME280;33874;52.070;-0.516;2023-05-23T15:14:28;102294.37;;;21.94;40.42
48095;BME280;33874;52.070;-0.516;2023-05-23T15:17:00;102296.85;;;22.00;40.39
48095;BME280;33874;52.070;-0.516;2023-05-23T15:19:35;102299.46;;;21.96;39.41